Time;durP1;ratioP1;P1;durP2;ratioP2;P2;SDS_P1;SDS_P2;PMS_P1;PMS_P2;Temp;Humidity;BMP_temperature;BMP_pressure;BME280_temperature;BME280_humidity;BME280_pressure;Samples;Min_cycle;Max_cycle;Signal;HPM_P1;HPM_P2
2023/09/05 00:00:30;;;;;;;7.23;6.50;;;16.80;99.90;;;;;;5047103;28;20244;-69
2023/09/05 00:02:58;;;;;;;7.73;6.33;;;16.80;99.90;;;;;;5043448;28;20390;-68
2023/09/05 00:05:27;;;;;;;8.20;6.50;;;16.70;99.90;;;;;;5040248;28;20254;-69
2023/09/05 00:07:55;;;;;;;8.00;6.27;;;16.70;99.90;;;;;;5042139;28;20225;-69
2023/09/05 00:10:25;;;;;;;12.00;7.07;;;16.70;99.90;;;;;;5044983;28;20213;-69
2023/09/05 00:12:53;;;;;;;9.20;6.20;;;16.70;99.90;;;;;;5042981;28;20223;-69
2023/09/05 00:15:22;;;;;;;9.40;5.83;;;16.60;99.90;;;;;;5043119;28;20319;-69
2023/09/05 00:17:50;;;;;;;7.77;6.10;;;16.60;99.90;;;;;;5043690;28;20199;-69
2023/09/05 00:20:19;;;;;;;6.97;6.10;;;16.50;99.90;;;;;;5031202;28;20217;-69
2023/09/05 00:22:47;;;;;;;9.17;7.03;;;16.50;99.90;;;;;;5041898;28;20216;-69
2023/09/05 00:25:16;;;;;;;8.00;6.80;;;16.50;99.90;;;;;;5043667;28;20225;-69
2023/09/05 00:27:45;;;;;;;7.13;6.43;;;16.50;99.90;;;;;;5040726;28;20225;-70
2023/09/05 00:30:14;;;;;;;8.30;6.80;;;16.40;99.90;;;;;;5042963;28;20201;-69
2023/09/05 00:32:43;;;;;;;7.43;6.47;;;16.40;99.90;;;;;;5044536;28;20554;-69
2023/09/05 00:35:14;;;;;;;7.37;6.63;;;16.40;99.90;;;;;;5045648;28;20270;-69
2023/09/05 00:37:43;;;;;;;6.63;5.97;;;16.40;99.90;;;;;;5042588;28;20216;-69
2023/09/05 00:40:12;;;;;;;9.00;6.37;;;16.30;99.90;;;;;;5029386;28;20212;-69
2023/09/05 00:42:40;;;;;;;7.67;6.67;;;16.30;99.90;;;;;;5044231;28;20221;-70
2023/09/05 00:45:11;;;;;;;8.90;6.70;;;16.30;99.90;;;;;;5040701;28;20203;-69
2023/09/05 00:47:40;;;;;;;11.37;7.77;;;16.20;99.90;;;;;;5042673;28;20235;-70
2023/09/05 00:50:10;;;;;;;7.30;6.60;;;16.20;99.90;;;;;;5043919;28;20222;-69
2023/09/05 00:52:39;;;;;;;9.00;6.83;;;16.10;99.90;;;;;;5041697;28;20957;-70
2023/09/05 00:55:08;;;;;;;11.87;7.27;;;16.10;99.90;;;;;;5041668;28;20220;-70
2023/09/05 00:57:37;;;;;;;7.50;6.63;;;16.10;99.90;;;;;;5045250;28;20228;-69
2023/09/05 01:00:08;;;;;;;7.37;6.27;;;16.10;99.90;;;;;;5039626;28;20196;-69
2023/09/05 01:02:40;;;;;;;6.87;6.37;;;16.10;99.90;;;;;;5047397;28;20209;-69
2023/09/05 01:05:10;;;;;;;10.30;7.27;;;16.00;99.90;;;;;;5046005;28;20313;-69
2023/09/05 01:07:55;;;;;;;9.00;6.83;;;16.00;99.90;;;;;;5041014;28;20225;-69
2023/09/05 01:10:32;;;;;;;7.73;6.93;;;16.00;99.90;;;;;;5038529;28;20703;-70
2023/09/05 01:13:01;;;;;;;6.33;5.73;;;16.00;99.90;;;;;;5042956;28;20220;-69
2023/09/05 01:15:29;;;;;;;7.33;6.57;;;16.00;99.90;;;;;;5042624;28;20225;-69
2023/09/05 01:17:58;;;;;;;10.07;7.67;;;16.00;99.90;;;;;;5043372;28;20198;-69
2023/09/05 01:20:41;;;;;;;7.63;6.83;;;15.90;99.90;;;;;;5044471;28;20630;-69
2023/09/05 01:23:17;;;;;;;7.77;7.17;;;15.90;99.90;;;;;;5042657;28;20850;-70
2023/09/05 01:25:47;;;;;;;8.17;7.47;;;15.90;99.90;;;;;;5047390;28;20267;-70
2023/09/05 01:28:22;;;;;;;8.20;7.10;;;16.00;99.90;;;;;;5038535;28;20239;-69
2023/09/05 01:30:51;;;;;;;7.63;6.93;;;16.00;99.90;;;;;;5044709;28;20223;-70
2023/09/05 01:33:19;;;;;;;8.60;7.70;;;15.90;99.90;;;;;;5043071;28;20224;-70
2023/09/05 01:35:47;;;;;;;11.30;8.33;;;15.90;99.90;;;;;;5043040;28;20810;-69
2023/09/05 01:38:16;;;;;;;9.57;7.77;;;15.90;99.90;;;;;;5043875;28;21126;-69
2023/09/05 01:40:44;;;;;;;9.37;8.17;;;15.90;99.90;;;;;;5045677;28;20227;-69
2023/09/05 01:43:13;;;;;;;9.20;7.40;;;15.90;99.90;;;;;;5042142;28;20223;-69
2023/09/05 01:45:42;;;;;;;8.43;7.57;;;15.90;99.90;;;;;;5042688;28;20212;-69
2023/09/05 01:48:10;;;;;;;11.37;7.60;;;15.90;99.90;;;;;;5046443;28;20222;-69
2023/09/05 01:50:38;;;;;;;7.93;6.80;;;15.80;99.90;;;;;;5039920;28;20270;-69
2023/09/05 01:53:07;;;;;;;11.00;7.40;;;15.80;99.90;;;;;;5024898;28;20306;-69
2023/09/05 01:55:35;;;;;;;7.17;6.57;;;15.70;99.90;;;;;;5043013;28;20224;-69
2023/09/05 01:58:03;;;;;;;7.33;6.73;;;15.70;99.90;;;;;;5042282;28;20223;-69
2023/09/05 02:00:33;;;;;;;8.73;7.20;;;15.70;99.90;;;;;;5037433;28;20238;-69
2023/09/05 02:03:01;;;;;;;8.80;7.33;;;15.70;99.90;;;;;;5037057;28;20224;-69
2023/09/05 02:05:30;;;;;;;8.80;8.00;;;15.60;99.90;;;;;;5044781;28;20196;-69
2023/09/05 02:07:58;;;;;;;7.93;7.13;;;15.60;99.90;;;;;;5041044;28;20217;-69
2023/09/05 02:10:29;;;;;;;8.80;7.90;;;15.60;99.90;;;;;;5040144;28;20847;-69
2023/09/05 02:12:58;;;;;;;10.80;8.20;;;15.60;99.90;;;;;;5046771;28;20394;-69
2023/09/05 02:15:26;;;;;;;9.83;7.87;;;15.60;99.90;;;;;;5041062;28;20731;-69
2023/09/05 02:17:56;;;;;;;13.10;8.50;;;15.60;99.90;;;;;;5044279;28;20675;-69
2023/09/05 02:20:24;;;;;;;8.70;7.83;;;15.70;99.90;;;;;;5042959;28;20273;-69
2023/09/05 02:22:53;;;;;;;9.37;8.23;;;15.70;99.90;;;;;;5038926;28;20223;-70
2023/09/05 02:25:21;;;;;;;9.20;8.23;;;15.60;99.90;;;;;;5043067;28;20224;-70
2023/09/05 02:27:49;;;;;;;8.80;7.97;;;15.60;99.90;;;;;;5039800;28;20468;-69
2023/09/05 02:30:18;;;;;;;9.03;8.10;;;15.60;99.90;;;;;;5045949;28;20232;-70
2023/09/05 02:32:50;;;;;;;9.10;8.20;;;15.60;99.90;;;;;;5046226;28;20196;-69
2023/09/05 02:35:22;;;;;;;9.53;7.80;;;15.50;99.90;;;;;;5049237;28;20222;-70
2023/09/05 02:37:51;;;;;;;11.27;8.67;;;15.50;99.90;;;;;;5044050;28;20215;-70
2023/09/05 02:40:20;;;;;;;11.03;8.73;;;15.50;99.90;;;;;;5042290;28;20382;-69
2023/09/05 02:42:48;;;;;;;11.20;8.20;;;15.50;99.90;;;;;;5045529;28;20224;-70
2023/09/05 02:45:17;;;;;;;9.27;7.70;;;15.40;99.90;;;;;;5043549;28;20197;-69
2023/09/05 02:47:45;;;;;;;9.10;7.97;;;15.40;99.90;;;;;;5027954;28;21625;-70
2023/09/05 02:50:14;;;;;;;8.30;7.50;;;15.40;99.90;;;;;;5045131;28;20229;-69
2023/09/05 02:52:43;;;;;;;9.20;7.50;;;15.40;99.90;;;;;;5047827;28;20242;-69
2023/09/05 02:55:15;;;;;;;9.70;8.27;;;15.40;99.90;;;;;;5050869;28;20223;-69
2023/09/05 02:57:44;;;;;;;12.87;8.40;;;15.40;99.90;;;;;;5039544;28;20220;-69
2023/09/05 03:00:13;;;;;;;9.40;8.50;;;15.40;99.90;;;;;;5044448;28;20274;-69
2023/09/05 03:02:43;;;;;;;8.27;7.43;;;15.40;99.90;;;;;;5048484;28;20219;-69
2023/09/05 03:05:13;;;;;;;11.30;8.93;;;15.50;99.90;;;;;;5044324;28;20256;-69
2023/09/05 03:07:45;;;;;;;11.17;7.90;;;15.40;99.90;;;;;;5040374;28;20243;-69
2023/09/05 03:10:13;;;;;;;9.40;8.50;;;15.40;99.90;;;;;;5043623;28;20244;-69
2023/09/05 03:12:41;;;;;;;9.20;8.17;;;15.40;99.90;;;;;;5043512;28;20253;-69
2023/09/05 03:15:10;;;;;;;9.27;8.17;;;15.40;99.90;;;;;;5044590;28;20209;-69
2023/09/05 03:17:38;;;;;;;11.17;8.20;;;15.40;99.90;;;;;;5040493;28;20193;-69
2023/09/05 03:20:08;;;;;;;9.87;8.13;;;15.30;99.90;;;;;;5044273;28;20236;-69
2023/09/05 03:22:36;;;;;;;8.37;7.57;;;15.30;99.90;;;;;;5042997;28;20225;-69
2023/09/05 03:25:07;;;;;;;10.03;8.03;;;15.30;99.90;;;;;;5045296;28;20215;-69
2023/09/05 03:27:35;;;;;;;8.80;7.33;;;15.30;99.90;;;;;;5041746;28;20736;-69
2023/09/05 03:30:04;;;;;;;9.23;7.13;;;15.30;99.90;;;;;;5039050;28;20702;-68
2023/09/05 03:32:32;;;;;;;8.53;7.50;;;15.20;99.90;;;;;;5047827;28;20199;-69
2023/09/05 03:35:01;;;;;;;9.40;8.00;;;15.20;99.90;;;;;;5049473;28;20241;-69
2023/09/05 03:37:29;;;;;;;8.70;7.47;;;15.20;99.90;;;;;;5041964;28;20856;-69
2023/09/05 03:39:57;;;;;;;10.00;8.03;;;15.10;99.90;;;;;;5047018;28;20287;-69
2023/09/05 03:42:28;;;;;;;8.57;7.63;;;15.10;99.90;;;;;;5041278;28;20589;-69
2023/09/05 03:44:56;;;;;;;8.13;7.30;;;15.10;99.90;;;;;;5042107;28;20235;-69
2023/09/05 03:47:24;;;;;;;12.63;7.83;;;15.20;99.90;;;;;;5041774;28;20576;-69
2023/09/05 03:49:52;;;;;;;9.07;7.10;;;15.10;99.90;;;;;;5044974;28;20221;-69
2023/09/05 03:52:21;;;;;;;8.57;7.43;;;15.10;99.90;;;;;;5047351;28;20632;-69
2023/09/05 03:54:49;;;;;;;8.03;7.23;;;15.10;99.90;;;;;;5042761;28;20227;-69
2023/09/05 03:57:17;;;;;;;11.97;7.10;;;15.10;99.90;;;;;;5046225;28;20192;-69
2023/09/05 03:59:47;;;;;;;10.53;7.33;;;15.00;99.90;;;;;;5041833;28;20595;-69
2023/09/05 04:02:15;;;;;;;7.27;6.67;;;15.00;99.90;;;;;;5043818;28;20602;-69
2023/09/05 04:04:43;;;;;;;9.90;7.63;;;14.90;99.90;;;;;;5045933;28;20215;-69
2023/09/05 04:07:11;;;;;;;13.80;6.83;;;14.90;99.90;;;;;;5042866;28;20222;-69
2023/09/05 04:09:40;;;;;;;11.83;6.97;;;14.90;99.90;;;;;;5046663;28;20222;-69
2023/09/05 04:12:09;;;;;;;8.20;7.40;;;14.90;99.90;;;;;;5041599;28;20201;-69
2023/09/05 04:14:37;;;;;;;10.07;7.03;;;14.90;99.90;;;;;;5028953;28;20209;-69
2023/09/05 04:17:07;;;;;;;10.33;7.33;;;14.80;99.90;;;;;;5018112;28;20218;-69
2023/09/05 04:19:35;;;;;;;11.20;6.80;;;14.80;99.90;;;;;;5044031;28;20228;-69
2023/09/05 04:22:04;;;;;;;14.00;6.90;;;14.80;99.90;;;;;;5041476;28;20246;-69
2023/09/05 04:24:32;;;;;;;21.57;6.77;;;14.70;99.90;;;;;;5042930;28;20229;-69
2023/09/05 04:27:00;;;;;;;14.27;7.67;;;14.70;99.90;;;;;;5043819;28;20187;-68
2023/09/05 04:29:29;;;;;;;17.47;7.57;;;14.70;99.90;;;;;;5044789;28;20214;-69
2023/09/05 04:31:57;;;;;;;15.47;7.50;;;14.70;99.90;;;;;;5043266;28;20215;-69
2023/09/05 04:34:27;;;;;;;19.53;7.90;;;14.60;99.90;;;;;;5042060;28;20325;-69
2023/09/05 04:36:56;;;;;;;10.23;6.83;;;14.60;99.90;;;;;;5024917;28;20220;-68
2023/09/05 04:39:24;;;;;;;14.50;7.40;;;14.50;99.90;;;;;;5044531;28;20228;-69
2023/09/05 04:41:53;;;;;;;14.00;7.00;;;14.50;99.90;;;;;;5039834;28;20203;-69
2023/09/05 04:44:22;;;;;;;13.97;7.37;;;14.50;99.90;;;;;;5040800;28;20246;-69
2023/09/05 04:46:51;;;;;;;16.47;7.80;;;14.50;99.90;;;;;;5041032;28;20676;-68
2023/09/05 04:49:19;;;;;;;17.00;6.87;;;14.50;99.90;;;;;;5041526;28;20272;-68
2023/09/05 04:51:49;;;;;;;12.27;7.60;;;14.50;99.90;;;;;;5035145;28;20222;-68
2023/09/05 04:54:17;;;;;;;15.73;7.70;;;14.50;99.90;;;;;;5044985;28;20657;-68
2023/09/05 04:56:45;;;;;;;14.20;7.37;;;14.40;99.90;;;;;;5041239;28;20669;-68
2023/09/05 04:59:14;;;;;;;11.23;7.30;;;14.40;99.90;;;;;;5042890;28;20554;-68
2023/09/05 05:01:42;;;;;;;13.80;7.40;;;14.40;99.90;;;;;;5020720;28;20227;-68
2023/09/05 05:04:10;;;;;;;12.37;6.77;;;14.40;99.90;;;;;;5042991;28;20572;-68
2023/09/05 05:06:39;;;;;;;14.33;7.60;;;14.40;99.90;;;;;;5041185;28;20626;-68
2023/09/05 05:09:08;;;;;;;10.80;6.93;;;14.30;99.90;;;;;;5042074;28;20214;-68
2023/09/05 05:11:37;;;;;;;16.77;7.13;;;14.30;99.90;;;;;;5046473;28;20210;-69
2023/09/05 05:14:05;;;;;;;15.47;7.73;;;14.30;99.90;;;;;;5043992;28;20228;-69
2023/09/05 05:16:34;;;;;;;18.50;8.00;;;14.30;99.90;;;;;;5037081;28;20250;-69
2023/09/05 05:19:03;;;;;;;16.93;7.50;;;14.30;99.90;;;;;;5037367;28;20221;-69
2023/09/05 05:21:31;;;;;;;16.83;7.33;;;14.30;99.90;;;;;;5040487;28;20217;-69
2023/09/05 05:24:00;;;;;;;17.27;7.40;;;14.30;99.90;;;;;;5038865;28;20205;-68
2023/09/05 05:26:30;;;;;;;13.47;7.23;;;14.20;99.90;;;;;;5041890;28;20200;-69
2023/09/05 05:28:58;;;;;;;15.77;7.07;;;14.30;99.90;;;;;;5022368;28;20226;-68
2023/09/05 05:31:27;;;;;;;13.17;7.33;;;14.30;99.90;;;;;;5041601;28;20242;-68
2023/09/05 05:33:55;;;;;;;24.47;7.80;;;14.30;99.90;;;;;;5044210;28;20273;-68
2023/09/05 05:36:24;;;;;;;16.23;7.30;;;14.30;99.90;;;;;;5038441;28;20230;-69
2023/09/05 05:38:52;;;;;;;10.23;6.57;;;14.40;99.90;;;;;;5044248;28;20286;-68
2023/09/05 05:41:21;;;;;;;8.83;7.27;;;14.40;99.90;;;;;;5041394;28;20215;-69
2023/09/05 05:43:50;;;;;;;13.23;6.93;;;14.50;99.90;;;;;;5027225;28;20234;-69
2023/09/05 05:46:19;;;;;;;11.10;7.20;;;14.60;99.90;;;;;;5040833;28;20270;-69
2023/09/05 05:48:48;;;;;;;11.50;7.10;;;14.70;99.90;;;;;;5041679;28;20221;-69
2023/09/05 05:51:16;;;;;;;8.13;7.07;;;14.80;99.90;;;;;;5045162;28;20207;-69
2023/09/05 05:53:45;;;;;;;13.20;7.07;;;14.90;99.90;;;;;;5044483;28;20206;-69
2023/09/05 05:56:13;;;;;;;12.43;7.57;;;15.00;99.90;;;;;;5043821;28;20213;-69
2023/09/05 05:58:41;;;;;;;11.00;7.33;;;15.00;99.90;;;;;;5039892;28;20665;-69
2023/09/05 06:01:11;;;;;;;13.67;8.03;;;15.10;99.90;;;;;;5040270;28;20609;-69
2023/09/05 06:03:39;;;;;;;13.63;6.60;;;15.10;99.90;;;;;;5039367;28;20781;-69
2023/09/05 06:06:08;;;;;;;11.80;7.17;;;15.20;99.90;;;;;;5043862;28;20230;-69
2023/09/05 06:08:36;;;;;;;8.43;7.13;;;15.20;99.90;;;;;;5043636;28;20195;-69
2023/09/05 06:11:05;;;;;;;9.27;6.67;;;15.20;99.90;;;;;;5041541;28;20230;-69
2023/09/05 06:13:33;;;;;;;10.90;7.00;;;15.20;99.90;;;;;;5040600;28;20226;-69
2023/09/05 06:16:01;;;;;;;8.13;6.83;;;15.30;99.90;;;;;;5025185;28;20218;-69
2023/09/05 06:18:31;;;;;;;8.40;6.60;;;15.40;99.90;;;;;;5038886;28;20624;-69
2023/09/05 06:20:59;;;;;;;9.57;6.57;;;15.60;99.90;;;;;;5024647;28;20200;-69
2023/09/05 06:23:29;;;;;;;7.77;6.30;;;15.80;99.90;;;;;;5038109;28;20199;-69
2023/09/05 06:25:57;;;;;;;7.23;6.33;;;16.00;99.90;;;;;;5043484;28;20224;-69
2023/09/05 06:28:26;;;;;;;8.73;6.30;;;16.20;99.90;;;;;;5040520;28;20230;-70
2023/09/05 06:30:57;;;;;;;7.60;5.87;;;16.50;99.90;;;;;;5043642;28;20220;-70
2023/09/05 06:33:26;;;;;;;10.07;6.20;;;16.70;99.90;;;;;;5040887;28;20225;-70
2023/09/05 06:35:55;;;;;;;7.73;5.57;;;17.00;99.90;;;;;;5041260;28;20197;-69
2023/09/05 06:38:24;;;;;;;13.07;5.87;;;17.20;99.90;;;;;;5043279;28;20240;-70
2023/09/05 06:40:52;;;;;;;6.63;5.20;;;17.50;99.90;;;;;;5039757;28;20213;-70
2023/09/05 06:43:21;;;;;;;7.33;5.90;;;17.80;99.90;;;;;;5041667;28;20659;-69
2023/09/05 06:45:50;;;;;;;5.77;5.20;;;18.00;99.90;;;;;;5039819;28;20295;-69
2023/09/05 06:48:18;;;;;;;9.00;5.90;;;18.30;99.90;;;;;;5039595;28;21320;-69
2023/09/05 06:50:47;;;;;;;7.97;5.70;;;18.40;99.90;;;;;;5043571;28;20220;-69
2023/09/05 06:53:16;;;;;;;8.93;5.23;;;18.70;99.90;;;;;;5038870;28;20217;-69
2023/09/05 06:55:46;;;;;;;9.77;5.67;;;18.90;99.90;;;;;;5040897;28;20308;-68
2023/09/05 06:58:14;;;;;;;11.37;5.20;;;19.20;99.90;;;;;;5039594;28;20278;-69
2023/09/05 07:00:42;;;;;;;9.87;5.10;;;19.30;99.90;;;;;;5041519;28;20225;-69
2023/09/05 07:03:13;;;;;;;15.33;5.73;;;19.50;99.90;;;;;;5038474;28;20197;-68
2023/09/05 07:05:42;;;;;;;7.37;4.57;;;19.70;99.90;;;;;;5039389;28;20220;-69
2023/09/05 07:08:28;;;;;;;5.53;4.50;;;19.80;99.90;;;;;;5020288;28;20213;-70
2023/09/05 07:10:57;;;;;;;7.53;5.30;;;20.00;99.90;;;;;;5021457;28;20221;-69
2023/09/05 07:13:26;;;;;;;6.47;4.17;;;20.20;99.90;;;;;;5019161;28;20680;-68
2023/09/05 07:15:56;;;;;;;4.67;4.27;;;20.30;99.90;;;;;;5020726;28;20225;-69
2023/09/05 07:18:25;;;;;;;7.03;4.43;;;20.50;99.90;;;;;;5029065;28;20571;-69
2023/09/05 07:20:53;;;;;;;7.67;4.03;;;20.70;99.90;;;;;;5024468;28;20603;-69
2023/09/05 07:23:22;;;;;;;6.97;3.90;;;20.80;99.90;;;;;;5025971;28;20216;-69
2023/09/05 07:25:51;;;;;;;6.67;4.30;;;21.00;99.90;;;;;;5022208;28;20569;-69
2023/09/05 07:28:20;;;;;;;7.73;4.10;;;21.20;99.90;;;;;;5025428;28;20225;-69
2023/09/05 07:30:48;;;;;;;6.57;4.50;;;21.40;99.90;;;;;;5021373;28;20619;-69
2023/09/05 07:33:16;;;;;;;6.30;4.20;;;21.50;99.90;;;;;;5019358;28;20191;-69
2023/09/05 07:35:45;;;;;;;7.57;4.00;;;21.70;99.90;;;;;;5023357;28;20185;-69
2023/09/05 07:38:15;;;;;;;4.60;3.87;;;22.00;99.90;;;;;;5025795;28;20225;-69
2023/09/05 07:40:44;;;;;;;6.00;3.80;;;22.20;99.90;;;;;;5025396;28;20869;-69
2023/09/05 07:43:13;;;;;;;8.23;3.47;;;22.30;99.90;;;;;;5006841;28;20226;-69
2023/09/05 07:45:42;;;;;;;5.33;3.37;;;22.50;99.90;;;;;;5024965;28;20225;-69
2023/09/05 07:48:10;;;;;;;8.60;3.80;;;22.60;99.90;;;;;;5022377;28;20198;-69
2023/09/05 07:50:43;;;;;;;9.67;3.90;;;22.80;99.90;;;;;;5024800;28;20225;-69
2023/09/05 07:53:11;;;;;;;5.83;4.07;;;22.90;99.90;;;;;;5024147;28;20220;-69
2023/09/05 07:55:40;;;;;;;10.37;4.10;;;23.00;99.90;;;;;;5022500;28;20238;-69
2023/09/05 07:58:12;;;;;;;9.40;4.23;;;23.10;99.90;;;;;;5023809;28;20241;-68
2023/09/05 08:00:42;;;;;;;7.03;3.73;;;23.30;99.90;;;;;;5025124;28;20650;-69
2023/09/05 08:03:11;;;;;;;4.00;3.40;;;23.50;99.90;;;;;;5030160;28;20224;-69
2023/09/05 08:05:39;;;;;;;5.20;3.40;;;23.60;99.90;;;;;;5021342;28;20258;-69
2023/09/05 08:08:08;;;;;;;3.33;3.03;;;23.60;99.90;;;;;;5042050;28;20594;-69
2023/09/05 08:10:37;;;;;;;3.77;2.97;;;23.70;99.90;;;;;;5044000;28;20249;-69
2023/09/05 08:13:05;;;;;;;3.03;2.80;;;23.80;99.90;;;;;;5044964;28;20681;-70
2023/09/05 08:15:34;;;;;;;3.90;2.80;;;24.00;99.90;;;;;;5038685;28;20235;-69
2023/09/05 08:18:04;;;;;;;3.23;2.93;;;24.00;99.90;;;;;;5038849;28;20199;-69
2023/09/05 08:20:32;;;;;;;3.13;2.87;;;24.10;99.90;;;;;;5046352;28;20640;-70
2023/09/05 08:23:01;;;;;;;2.90;2.70;;;24.30;99.90;;;;;;5044217;28;20251;-69
2023/09/05 08:25:30;;;;;;;4.83;2.80;;;24.50;99.90;;;;;;5044245;28;20217;-69
2023/09/05 08:27:58;;;;;;;2.73;2.53;;;24.70;99.90;;;;;;5038143;28;20214;-69
2023/09/05 08:30:28;;;;;;;3.03;2.83;;;24.80;99.90;;;;;;5044354;28;20742;-70
2023/09/05 08:32:57;;;;;;;3.20;2.60;;;24.90;99.90;;;;;;5045037;28;20305;-69
2023/09/05 08:35:27;;;;;;;5.30;2.70;;;25.00;99.90;;;;;;5042415;28;20702;-69
2023/09/05 08:37:57;;;;;;;3.97;2.80;;;25.10;99.90;;;;;;5045187;28;20541;-69
2023/09/05 08:40:25;;;;;;;2.90;2.43;;;25.20;99.90;;;;;;5040492;28;20244;-69
2023/09/05 08:42:54;;;;;;;2.80;2.57;;;25.30;99.90;;;;;;5043336;28;20240;-68
2023/09/05 08:45:23;;;;;;;3.27;2.43;;;25.50;99.90;;;;;;5041122;28;20573;-69
2023/09/05 08:47:52;;;;;;;4.50;3.20;;;25.60;99.90;;;;;;5041017;28;20197;-69
2023/09/05 08:50:22;;;;;;;3.37;2.83;;;25.80;99.90;;;;;;5044385;28;20224;-69
2023/09/05 08:52:53;;;;;;;2.97;2.70;;;25.80;99.90;;;;;;5041677;28;20576;-68
2023/09/05 08:55:22;;;;;;;3.07;2.60;;;25.90;99.90;;;;;;5039491;28;20224;-69
2023/09/05 08:57:53;;;;;;;2.80;2.60;;;26.00;99.90;;;;;;5041517;28;20241;-69
2023/09/05 09:00:21;;;;;;;2.70;2.53;;;26.20;99.90;;;;;;5042617;28;20335;-68
2023/09/05 09:02:50;;;;;;;2.67;2.13;;;26.20;99.90;;;;;;5025898;28;20199;-69
2023/09/05 09:05:18;;;;;;;2.20;2.10;;;26.20;99.90;;;;;;5039646;28;20236;-69
2023/09/05 09:07:47;;;;;;;2.60;2.40;;;26.30;99.90;;;;;;5041641;28;20256;-69
2023/09/05 09:10:20;;;;;;;2.60;2.40;;;26.40;99.90;;;;;;5023978;28;20217;-69
2023/09/05 09:12:54;;;;;;;2.20;2.13;;;26.40;99.90;;;;;;5021923;28;20225;-69
2023/09/05 09:15:25;;;;;;;2.60;2.40;;;26.40;99.90;;;;;;5039201;28;20225;-68
2023/09/05 09:17:54;;;;;;;2.30;2.10;;;26.40;99.90;;;;;;5045776;28;20208;-69
2023/09/05 09:20:23;;;;;;;2.47;2.37;;;26.40;99.90;;;;;;5040806;28;20664;-69
2023/09/05 09:22:52;;;;;;;2.77;2.57;;;26.60;99.90;;;;;;5044543;28;20707;-68
2023/09/05 09:25:23;;;;;;;3.17;2.50;;;26.60;99.90;;;;;;5029709;28;20221;-68
2023/09/05 09:27:53;;;;;;;2.63;2.40;;;26.60;99.90;;;;;;5037449;28;20217;-69
2023/09/05 09:30:24;;;;;;;2.53;2.30;;;26.60;99.90;;;;;;5042582;28;20228;-70
2023/09/05 09:32:53;;;;;;;3.40;2.17;;;26.70;99.90;;;;;;5043879;28;20304;-70
2023/09/05 09:35:22;;;;;;;2.20;2.10;;;26.70;99.90;;;;;;5041433;28;20213;-67
2023/09/05 09:37:50;;;;;;;2.30;2.20;;;26.80;99.90;;;;;;5038701;28;20225;-69
2023/09/05 09:40:19;;;;;;;2.60;2.40;;;26.80;99.90;;;;;;5042594;28;20366;-69
2023/09/05 09:42:50;;;;;;;2.43;2.33;;;26.80;99.90;;;;;;5042059;28;20228;-68
2023/09/05 09:45:19;;;;;;;2.50;2.23;;;26.80;99.90;;;;;;5040279;28;20232;-69
2023/09/05 09:47:49;;;;;;;3.93;2.40;;;27.00;99.90;;;;;;5040680;28;20198;-69
2023/09/05 09:50:19;;;;;;;2.60;2.50;;;27.10;99.90;;;;;;5043041;28;20229;-68
2023/09/05 09:52:55;;;;;;;3.30;2.20;;;27.10;99.90;;;;;;5040702;28;20881;-69
2023/09/05 09:55:31;;;;;;;2.17;2.08;;;27.30;99.90;;;;;;5024676;28;20319;-68
2023/09/05 09:58:05;;;;;;;2.80;2.60;;;27.50;99.90;;;;;;5039388;28;20219;-68
2023/09/05 10:00:35;;;;;;;6.00;2.35;;;27.70;99.90;;;;;;5040406;28;20216;-68
2023/09/05 10:03:08;;;;;;;2.58;2.42;;;27.90;99.90;;;;;;5046664;28;20196;-69
2023/09/05 10:05:41;;;;;;;2.60;2.50;;;28.00;99.90;;;;;;5044066;28;20203;-68
2023/09/05 10:08:10;;;;;;;2.45;2.35;;;28.10;99.90;;;;;;5036042;28;20224;-69
2023/09/05 10:10:40;;;;;;;2.65;2.42;;;28.20;99.90;;;;;;5044850;28;20218;-68
2023/09/05 10:13:11;;;;;;;2.45;2.45;;;28.20;99.90;;;;;;5036473;28;20251;-69
2023/09/05 10:15:41;;;;;;;2.28;2.17;;;28.40;99.90;;;;;;5039518;28;20637;-68
2023/09/05 10:18:10;;;;;;;3.25;2.60;;;28.60;99.90;;;;;;5040454;28;20224;-69
2023/09/05 10:20:41;;;;;;;2.38;2.25;;;28.70;99.90;;;;;;5039883;28;20200;-69
2023/09/05 10:23:10;;;;;;;4.95;2.38;;;28.70;99.90;;;;;;5041919;28;20212;-69
2023/09/05 10:25:40;;;;;;;2.33;2.15;;;28.80;99.90;;;;;;5039090;28;20238;-69
2023/09/05 10:28:10;;;;;;;2.40;2.20;;;28.80;99.90;;;;;;5039351;28;20303;-69
2023/09/05 10:30:40;;;;;;;2.50;2.30;;;28.90;99.90;;;;;;5043126;28;20235;-69
2023/09/05 10:33:09;;;;;;;2.70;2.50;;;29.00;99.90;;;;;;5042717;28;20212;-70
2023/09/05 10:35:44;;;;;;;2.50;2.17;;;29.10;99.90;;;;;;5044907;28;20247;-69
2023/09/05 10:38:14;;;;;;;5.18;2.45;;;29.10;99.90;;;;;;5046016;28;20248;-69
2023/09/05 10:40:43;;;;;;;2.67;2.38;;;29.50;99.90;;;;;;5042108;28;20221;-68
2023/09/05 10:43:20;;;;;;;2.75;2.28;;;29.50;99.90;;;;;;5038007;28;20239;-68
2023/09/05 10:45:56;;;;;;;7.55;2.35;;;29.80;99.90;;;;;;5041229;28;20229;-68
2023/09/05 10:48:36;;;;;;;2.72;2.20;;;29.80;99.90;;;;;;5038242;28;20335;-68
2023/09/05 10:51:07;;;;;;;2.78;2.50;;;29.70;99.90;;;;;;5044267;28;20189;-68
2023/09/05 10:53:37;;;;;;;3.05;2.30;;;29.80;99.90;;;;;;5044255;28;20240;-69
2023/09/05 10:56:06;;;;;;;3.47;2.42;;;30.00;99.90;;;;;;5047679;28;20286;-68
2023/09/05 10:58:40;;;;;;;2.28;2.17;;;30.20;99.90;;;;;;5041409;28;20229;-67
2023/09/05 11:01:49;;;;;;;2.15;2.10;;;30.40;99.90;;;;;;5042862;28;20256;-68
2023/09/05 11:04:26;;;;;;;2.50;2.30;;;30.20;99.90;;;;;;5046173;28;20213;-68
2023/09/05 11:06:56;;;;;;;2.50;2.35;;;30.10;99.90;;;;;;5043046;28;20741;-67
2023/09/05 11:09:25;;;;;;;2.53;2.33;;;30.30;99.90;;;;;;5042474;28;20583;-68
2023/09/05 11:11:55;;;;;;;2.22;2.13;;;30.70;99.90;;;;;;5045021;28;20212;-67
2023/09/05 11:14:35;;;;;;;4.63;2.25;;;30.70;99.90;;;;;;5041302;28;20217;-67
2023/09/05 11:17:04;;;;;;;2.47;2.38;;;30.70;99.90;;;;;;5044867;28;20225;-67
2023/09/05 11:19:37;;;;;;;2.35;2.20;;;30.60;99.90;;;;;;5044222;28;20275;-67
2023/09/05 11:22:11;;;;;;;2.40;2.20;;;30.60;99.90;;;;;;5027805;28;20583;-67
2023/09/05 11:24:45;;;;;;;2.60;2.40;;;30.70;99.90;;;;;;5042219;28;20228;-68
2023/09/05 11:27:14;;;;;;;2.72;2.53;;;30.80;99.90;;;;;;5044645;28;20204;-68
2023/09/05 11:29:46;;;;;;;7.32;2.60;;;31.00;99.90;;;;;;5044744;28;20746;-68
2023/09/05 11:32:15;;;;;;;3.88;2.78;;;31.10;99.90;;;;;;5043160;28;21365;-67
2023/09/05 11:34:45;;;;;;;3.28;2.40;;;31.10;99.90;;;;;;5044311;28;20209;-67
2023/09/05 11:37:22;;;;;;;2.40;2.30;;;31.20;99.90;;;;;;5043728;28;20232;-68
2023/09/05 11:39:54;;;;;;;3.33;2.75;;;31.40;99.90;;;;;;5034640;28;20236;-67
2023/09/05 11:42:24;;;;;;;2.53;2.30;;;31.20;99.90;;;;;;5038643;28;20213;-67
2023/09/05 11:44:54;;;;;;;2.33;2.13;;;31.40;99.90;;;;;;5047025;28;20208;-69
2023/09/05 11:47:23;;;;;;;3.10;2.40;;;31.70;99.90;;;;;;5043527;28;20220;-67
2023/09/05 11:49:53;;;;;;;3.88;2.53;;;32.00;99.90;;;;;;5041125;28;21169;-67
2023/09/05 11:52:23;;;;;;;3.45;2.42;;;32.10;99.90;;;;;;5041198;28;20269;-67
2023/09/05 11:54:53;;;;;;;2.30;2.20;;;32.20;99.90;;;;;;5038561;28;20217;-67
2023/09/05 11:57:23;;;;;;;5.93;2.75;;;32.00;99.90;;;;;;5045903;28;20221;-67
2023/09/05 11:59:53;;;;;;;3.78;2.30;;;31.90;99.90;;;;;;5046800;28;20193;-68
2023/09/05 12:02:22;;;;;;;2.25;2.15;;;31.90;99.90;;;;;;5025618;28;20223;-67
2023/09/05 12:04:51;;;;;;;2.88;2.67;;;31.70;99.90;;;;;;5044567;28;20217;-67
2023/09/05 12:07:24;;;;;;;2.70;2.55;;;31.40;99.90;;;;;;5045224;28;20225;-67
2023/09/05 12:09:55;;;;;;;2.50;2.30;;;31.20;99.90;;;;;;5039424;28;20230;-67
2023/09/05 12:12:23;;;;;;;2.30;2.20;;;31.10;99.90;;;;;;5042345;28;20218;-68
2023/09/05 12:14:54;;;;;;;4.93;2.50;;;31.20;99.90;;;;;;5044060;28;20218;-67
2023/09/05 12:17:24;;;;;;;3.15;2.75;;;31.30;99.90;;;;;;5021699;28;20244;-67
2023/09/05 12:19:53;;;;;;;2.50;2.30;;;31.50;99.90;;;;;;5043562;28;20227;-67
2023/09/05 12:22:23;;;;;;;3.28;2.50;;;31.70;99.90;;;;;;5041441;28;20229;-67
2023/09/05 12:25:09;;;;;;;3.15;2.38;;;31.60;99.90;;;;;;5040355;28;20222;-66
2023/09/05 12:27:39;;;;;;;2.88;2.30;;;31.30;99.90;;;;;;5022867;28;20219;-67
2023/09/05 12:30:25;;;;;;;3.90;2.75;;;30.90;99.90;;;;;;5033640;28;23265;-67
2023/09/05 12:32:56;;;;;;;3.30;2.92;;;30.90;99.90;;;;;;5045014;28;20220;-67
2023/09/05 12:35:25;;;;;;;4.05;2.60;;;31.00;99.90;;;;;;5045054;28;20248;-67
2023/09/05 12:37:54;;;;;;;3.45;2.53;;;31.00;99.90;;;;;;5044520;28;20228;-67
2023/09/05 12:40:23;;;;;;;2.90;2.70;;;31.10;99.90;;;;;;5049506;28;20219;-67
2023/09/05 12:42:51;;;;;;;2.80;2.70;;;31.20;99.90;;;;;;5043134;28;20217;-67
2023/09/05 12:45:21;;;;;;;2.83;2.55;;;31.10;99.90;;;;;;5042700;28;20347;-68
2023/09/05 12:47:51;;;;;;;3.55;3.00;;;31.00;99.90;;;;;;5025000;28;20675;-67
2023/09/05 12:50:29;;;;;;;3.00;2.75;;;31.00;99.90;;;;;;5043662;28;20229;-67
2023/09/05 12:53:00;;;;;;;2.67;2.55;;;30.80;99.90;;;;;;5042238;28;20227;-67
2023/09/05 12:55:31;;;;;;;2.53;2.42;;;30.60;99.90;;;;;;5048574;28;20230;-67
2023/09/05 12:58:03;;;;;;;2.65;2.45;;;30.50;99.90;;;;;;5044350;28;20227;-67